sensor_id;sensor_type;location;lat;lon;timestamp;P1;durP1;ratioP1;P2;durP2;ratioP2
21293;SDS011;10806;52.250;21.066;2022-08-11T00:02:24;19.42;;;5.20;;
21293;SDS011;10806;52.250;21.066;2022-08-11T00:04:53;10.98;;;4.80;;
21293;SDS011;10806;52.250;21.066;2022-08-11T00:07:21;15.10;;;4.93;;
21293;SDS011;10806;52.250;21.066;2022-08-11T00:09:48;15.05;;;5.10;;
21293;SDS011;10806;52.250;21.066;2022-08-11T00:12:15;10.85;;;5.05;;
21293;SDS011;10806;52.250;21.066;2022-08-11T00:14:42;10.23;;;5.30;;
21293;SDS011;10806;52.250;21.066;2022-08-11T00:17:10;10.98;;;5.15;;
21293;SDS011;10806;52.250;21.066;2022-08-11T00:19:44;9.07;;;4.90;;
21293;SDS011;10806;52.250;21.066;2022-08-11T00:22:11;14.73;;;5.20;;
21293;SDS011;10806;52.250;21.066;2022-08-11T00:24:45;14.48;;;5.30;;
21293;SDS011;10806;52.250;21.066;2022-08-11T00:27:11;12.68;;;5.10;;
21293;SDS011;10806;52.250;21.066;2022-08-11T00:29:37;11.50;;;4.80;;
21293;SDS011;10806;52.250;21.066;2022-08-11T00:32:03;11.05;;;5.13;;
21293;SDS011;10806;52.250;21.066;2022-08-11T00:34:32;12.73;;;5.32;;
21293;SDS011;10806;52.250;21.066;2022-08-11T00:37:05;10.30;;;5.53;;
21293;SDS011;10806;52.250;21.066;2022-08-11T00:39:45;9.50;;;5.22;;
21293;SDS011;10806;52.250;21.066;2022-08-11T00:45:20;10.15;;;4.72;;
21293;SDS011;10806;52.250;21.066;2022-08-11T00:53:29;9.80;;;4.82;;
21293;SDS011;10806;52.250;21.066;2022-08-11T01:02:01;11.93;;;4.57;;
21293;SDS011;10806;52.250;21.066;2022-08-11T01:13:09;8.20;;;4.85;;
21293;SDS011;10806;52.250;21.066;2022-08-11T01:24:58;13.23;;;4.68;;
21293;SDS011;10806;52.250;21.066;2022-08-11T01:27:47;11.55;;;5.00;;
21293;SDS011;10806;52.250;21.066;2022-08-11T01:31:04;12.35;;;4.72;;
21293;SDS011;10806;52.250;21.066;2022-08-11T01:42:13;15.02;;;5.00;;
21293;SDS011;10806;52.250;21.066;2022-08-11T02:12:57;14.02;;;4.85;;
21293;SDS011;10806;52.250;21.066;2022-08-11T02:15:37;9.45;;;4.45;;
21293;SDS011;10806;52.250;21.066;2022-08-11T02:18:09;9.40;;;4.70;;
21293;SDS011;10806;52.250;21.066;2022-08-11T02:20:47;11.07;;;4.65;;
21293;SDS011;10806;52.250;21.066;2022-08-11T02:23:57;7.55;;;4.35;;
21293;SDS011;10806;52.250;21.066;2022-08-11T02:29:16;8.10;;;4.80;;
21293;SDS011;10806;52.250;21.066;2022-08-11T02:32:05;9.05;;;4.80;;
21293;SDS011;10806;52.250;21.066;2022-08-11T03:01:58;7.85;;;4.30;;
21293;SDS011;10806;52.250;21.066;2022-08-11T03:12:44;6.80;;;4.45;;
21293;SDS011;10806;52.250;21.066;2022-08-11T03:15:31;10.68;;;4.90;;
21293;SDS011;10806;52.250;21.066;2022-08-11T03:21:08;8.40;;;4.68;;
21293;SDS011;10806;52.250;21.066;2022-08-11T03:23:57;6.75;;;4.30;;
21293;SDS011;10806;52.250;21.066;2022-08-11T03:29:34;9.60;;;4.65;;
21293;SDS011;10806;52.250;21.066;2022-08-11T03:32:08;8.82;;;4.32;;
21293;SDS011;10806;52.250;21.066;2022-08-11T03:34:45;7.50;;;4.32;;
21293;SDS011;10806;52.250;21.066;2022-08-11T03:43:16;10.07;;;4.30;;
21293;SDS011;10806;52.250;21.066;2022-08-11T03:46:00;6.25;;;3.90;;
21293;SDS011;10806;52.250;21.066;2022-08-11T03:48:53;7.43;;;3.95;;
21293;SDS011;10806;52.250;21.066;2022-08-11T03:51:46;9.45;;;4.40;;
21293;SDS011;10806;52.250;21.066;2022-08-11T03:57:07;7.75;;;3.88;;
21293;SDS011;10806;52.250;21.066;2022-08-11T04:23:05;6.78;;;4.10;;
21293;SDS011;10806;52.250;21.066;2022-08-11T04:31:36;6.28;;;3.83;;
21293;SDS011;10806;52.250;21.066;2022-08-11T04:37:09;6.65;;;3.95;;
21293;SDS011;10806;52.250;21.066;2022-08-11T05:07:13;6.72;;;4.20;;
21293;SDS011;10806;52.250;21.066;2022-08-11T05:10:02;8.63;;;3.63;;
21293;SDS011;10806;52.250;21.066;2022-08-11T05:12:45;7.43;;;3.47;;
21293;SDS011;10806;52.250;21.066;2022-08-11T05:15:50;7.30;;;3.83;;
21293;SDS011;10806;52.250;21.066;2022-08-11T05:18:45;9.80;;;4.32;;
21293;SDS011;10806;52.250;21.066;2022-08-11T05:21:33;5.82;;;3.70;;
21293;SDS011;10806;52.250;21.066;2022-08-11T05:24:22;12.10;;;4.70;;
21293;SDS011;10806;52.250;21.066;2022-08-11T05:27:08;17.98;;;4.43;;
21293;SDS011;10806;52.250;21.066;2022-08-11T05:30:01;14.52;;;3.65;;
21293;SDS011;10806;52.250;21.066;2022-08-11T05:33:01;17.80;;;3.95;;
21293;SDS011;10806;52.250;21.066;2022-08-11T05:35:49;13.93;;;4.03;;
21293;SDS011;10806;52.250;21.066;2022-08-11T05:38:26;7.57;;;4.00;;
21293;SDS011;10806;52.250;21.066;2022-08-11T05:41:13;8.05;;;3.53;;
21293;SDS011;10806;52.250;21.066;2022-08-11T05:43:58;8.35;;;3.50;;
21293;SDS011;10806;52.250;21.066;2022-08-11T05:46:43;8.00;;;4.05;;
21293;SDS011;10806;52.250;21.066;2022-08-11T05:49:28;9.13;;;3.78;;
21293;SDS011;10806;52.250;21.066;2022-08-11T05:52:20;5.07;;;3.60;;
21293;SDS011;10806;52.250;21.066;2022-08-11T05:55:06;11.32;;;3.35;;
21293;SDS011;10806;52.250;21.066;2022-08-11T05:57:55;13.05;;;3.85;;
21293;SDS011;10806;52.250;21.066;2022-08-11T06:00:29;9.23;;;3.42;;
21293;SDS011;10806;52.250;21.066;2022-08-11T06:03:00;9.90;;;3.97;;
21293;SDS011;10806;52.250;21.066;2022-08-11T06:05:35;7.97;;;3.50;;
21293;SDS011;10806;52.250;21.066;2022-08-11T06:08:05;10.48;;;4.05;;
21293;SDS011;10806;52.250;21.066;2022-08-11T06:10:33;15.10;;;3.97;;
21293;SDS011;10806;52.250;21.066;2022-08-11T06:13:00;4.93;;;3.30;;
21293;SDS011;10806;52.250;21.066;2022-08-11T06:15:27;8.18;;;3.83;;
21293;SDS011;10806;52.250;21.066;2022-08-11T06:17:56;13.23;;;3.47;;
21293;SDS011;10806;52.250;21.066;2022-08-11T06:20:25;8.18;;;3.42;;
21293;SDS011;10806;52.250;21.066;2022-08-11T06:22:57;9.30;;;3.53;;
21293;SDS011;10806;52.250;21.066;2022-08-11T06:25:29;8.95;;;3.72;;
21293;SDS011;10806;52.250;21.066;2022-08-11T06:27:57;8.63;;;3.65;;
21293;SDS011;10806;52.250;21.066;2022-08-11T06:30:36;5.97;;;3.30;;
21293;SDS011;10806;52.250;21.066;2022-08-11T06:33:09;7.53;;;3.80;;
21293;SDS011;10806;52.250;21.066;2022-08-11T06:40:53;7.28;;;3.70;;
21293;SDS011;10806;52.250;21.066;2022-08-11T06:46:30;7.38;;;3.28;;
21293;SDS011;10806;52.250;21.066;2022-08-11T06:49:01;7.82;;;3.45;;
21293;SDS011;10806;52.250;21.066;2022-08-11T06:51:27;5.93;;;3.38;;
21293;SDS011;10806;52.250;21.066;2022-08-11T06:53:53;3.92;;;2.95;;
21293;SDS011;10806;52.250;21.066;2022-08-11T06:56:34;5.43;;;3.45;;
21293;SDS011;10806;52.250;21.066;2022-08-11T06:59:19;6.93;;;2.85;;
21293;SDS011;10806;52.250;21.066;2022-08-11T07:04:55;12.80;;;3.85;;
21293;SDS011;10806;52.250;21.066;2022-08-11T07:13:22;5.80;;;3.45;;
21293;SDS011;10806;52.250;21.066;2022-08-11T07:16:06;7.30;;;3.25;;
21293;SDS011;10806;52.250;21.066;2022-08-11T07:18:34;8.98;;;2.92;;
21293;SDS011;10806;52.250;21.066;2022-08-11T07:21:27;14.90;;;3.45;;
21293;SDS011;10806;52.250;21.066;2022-08-11T07:24:21;10.13;;;3.55;;
21293;SDS011;10806;52.250;21.066;2022-08-11T07:27:10;4.38;;;3.25;;
21293;SDS011;10806;52.250;21.066;2022-08-11T07:29:57;14.13;;;3.35;;
21293;SDS011;10806;52.250;21.066;2022-08-11T07:32:27;6.40;;;2.90;;
21293;SDS011;10806;52.250;21.066;2022-08-11T07:35:07;16.52;;;3.55;;
21293;SDS011;10806;52.250;21.066;2022-08-11T07:37:37;10.02;;;3.03;;
21293;SDS011;10806;52.250;21.066;2022-08-11T07:40:07;10.45;;;3.40;;
21293;SDS011;10806;52.250;21.066;2022-08-11T07:42:33;13.55;;;3.35;;
21293;SDS011;10806;52.250;21.066;2022-08-11T07:45:01;7.10;;;3.28;;
21293;SDS011;10806;52.250;21.066;2022-08-11T07:47:51;10.90;;;3.25;;
21293;SDS011;10806;52.250;21.066;2022-08-11T07:50:40;10.90;;;3.67;;
21293;SDS011;10806;52.250;21.066;2022-08-11T07:53:26;7.13;;;3.05;;
21293;SDS011;10806;52.250;21.066;2022-08-11T07:55:57;5.88;;;3.17;;
21293;SDS011;10806;52.250;21.066;2022-08-11T07:58:24;8.30;;;3.40;;
21293;SDS011;10806;52.250;21.066;2022-08-11T08:01:09;6.50;;;3.33;;
21293;SDS011;10806;52.250;21.066;2022-08-11T08:03:55;10.88;;;3.90;;
21293;SDS011;10806;52.250;21.066;2022-08-11T08:06:42;4.68;;;3.47;;
21293;SDS011;10806;52.250;21.066;2022-08-11T08:09:27;9.85;;;3.53;;
21293;SDS011;10806;52.250;21.066;2022-08-11T08:12:15;8.15;;;3.50;;
21293;SDS011;10806;52.250;21.066;2022-08-11T08:15:04;9.45;;;3.40;;
21293;SDS011;10806;52.250;21.066;2022-08-11T08:17:50;9.05;;;3.38;;
21293;SDS011;10806;52.250;21.066;2022-08-11T08:20:18;7.97;;;3.10;;
21293;SDS011;10806;52.250;21.066;2022-08-11T08:22:52;5.47;;;2.97;;
21293;SDS011;10806;52.250;21.066;2022-08-11T08:25:26;4.20;;;2.90;;
21293;SDS011;10806;52.250;21.066;2022-08-11T08:27:54;11.27;;;2.95;;
21293;SDS011;10806;52.250;21.066;2022-08-11T08:30:21;11.35;;;3.28;;
21293;SDS011;10806;52.250;21.066;2022-08-11T08:33:08;7.60;;;3.10;;
21293;SDS011;10806;52.250;21.066;2022-08-11T08:35:35;4.57;;;2.88;;
21293;SDS011;10806;52.250;21.066;2022-08-11T08:38:01;5.97;;;3.10;;
21293;SDS011;10806;52.250;21.066;2022-08-11T08:40:28;8.50;;;3.25;;
21293;SDS011;10806;52.250;21.066;2022-08-11T08:42:55;6.07;;;3.13;;
21293;SDS011;10806;52.250;21.066;2022-08-11T08:45:23;5.18;;;2.80;;
21293;SDS011;10806;52.250;21.066;2022-08-11T08:47:51;6.22;;;3.00;;
21293;SDS011;10806;52.250;21.066;2022-08-11T08:50:23;5.50;;;3.10;;
21293;SDS011;10806;52.250;21.066;2022-08-11T08:53:11;8.73;;;2.78;;
21293;SDS011;10806;52.250;21.066;2022-08-11T08:55:38;7.22;;;3.20;;
21293;SDS011;10806;52.250;21.066;2022-08-11T08:58:06;8.70;;;2.83;;
21293;SDS011;10806;52.250;21.066;2022-08-11T09:00:41;8.90;;;3.25;;
21293;SDS011;10806;52.250;21.066;2022-08-11T09:03:09;8.07;;;2.90;;
21293;SDS011;10806;52.250;21.066;2022-08-11T09:05:35;10.60;;;3.30;;
21293;SDS011;10806;52.250;21.066;2022-08-11T09:08:02;6.57;;;2.92;;
21293;SDS011;10806;52.250;21.066;2022-08-11T09:10:28;6.13;;;2.80;;
21293;SDS011;10806;52.250;21.066;2022-08-11T09:12:54;22.02;;;3.60;;
21293;SDS011;10806;52.250;21.066;2022-08-11T09:15:21;5.53;;;2.90;;
21293;SDS011;10806;52.250;21.066;2022-08-11T09:17:48;10.85;;;3.25;;
21293;SDS011;10806;52.250;21.066;2022-08-11T09:20:18;11.57;;;3.00;;
21293;SDS011;10806;52.250;21.066;2022-08-11T09:22:49;10.30;;;2.90;;
21293;SDS011;10806;52.250;21.066;2022-08-11T09:25:38;7.78;;;2.67;;
21293;SDS011;10806;52.250;21.066;2022-08-11T09:28:24;7.35;;;2.90;;
21293;SDS011;10806;52.250;21.066;2022-08-11T09:30:57;5.85;;;3.17;;
21293;SDS011;10806;52.250;21.066;2022-08-11T09:33:25;7.57;;;2.88;;
21293;SDS011;10806;52.250;21.066;2022-08-11T09:35:53;8.80;;;2.88;;
21293;SDS011;10806;52.250;21.066;2022-08-11T09:38:20;9.80;;;2.97;;
21293;SDS011;10806;52.250;21.066;2022-08-11T09:41:08;8.38;;;2.63;;
21293;SDS011;10806;52.250;21.066;2022-08-11T09:43:38;9.82;;;3.78;;
21293;SDS011;10806;52.250;21.066;2022-08-11T09:46:25;16.25;;;4.45;;
21293;SDS011;10806;52.250;21.066;2022-08-11T09:48:52;17.77;;;5.30;;
21293;SDS011;10806;52.250;21.066;2022-08-11T09:51:23;17.60;;;4.47;;
21293;SDS011;10806;52.250;21.066;2022-08-11T09:53:49;17.30;;;4.57;;
21293;SDS011;10806;52.250;21.066;2022-08-11T09:56:17;23.77;;;4.70;;
21293;SDS011;10806;52.250;21.066;2022-08-11T09:59:04;14.52;;;4.03;;
21293;SDS011;10806;52.250;21.066;2022-08-11T10:01:36;12.52;;;4.32;;
21293;SDS011;10806;52.250;21.066;2022-08-11T10:04:40;11.50;;;4.00;;
21293;SDS011;10806;52.250;21.066;2022-08-11T10:06:59;15.68;;;3.92;;
21293;SDS011;10806;52.250;21.066;2022-08-11T10:09:35;14.63;;;4.10;;
21293;SDS011;10806;52.250;21.066;2022-08-11T10:12:02;16.48;;;3.78;;
21293;SDS011;10806;52.250;21.066;2022-08-11T10:14:47;18.20;;;3.47;;
21293;SDS011;10806;52.250;21.066;2022-08-11T10:17:35;15.88;;;4.50;;
21293;SDS011;10806;52.250;21.066;2022-08-11T10:20:27;14.18;;;3.13;;
21293;SDS011;10806;52.250;21.066;2022-08-11T10:22:56;9.13;;;3.47;;
21293;SDS011;10806;52.250;21.066;2022-08-11T10:25:42;9.50;;;3.78;;
21293;SDS011;10806;52.250;21.066;2022-08-11T10:28:26;8.68;;;3.40;;
21293;SDS011;10806;52.250;21.066;2022-08-11T10:30:53;11.27;;;3.40;;
21293;SDS011;10806;52.250;21.066;2022-08-11T10:33:38;9.35;;;3.13;;
21293;SDS011;10806;52.250;21.066;2022-08-11T10:36:24;10.60;;;3.55;;
21293;SDS011;10806;52.250;21.066;2022-08-11T10:39:13;10.82;;;3.15;;
21293;SDS011;10806;52.250;21.066;2022-08-11T10:41:43;15.57;;;3.22;;
21293;SDS011;10806;52.250;21.066;2022-08-11T10:44:28;13.20;;;2.95;;
21293;SDS011;10806;52.250;21.066;2022-08-11T10:47:06;10.52;;;2.40;;
21293;SDS011;10806;52.250;21.066;2022-08-11T10:49:52;11.48;;;2.80;;
21293;SDS011;10806;52.250;21.066;2022-08-11T10:52:39;21.17;;;3.03;;
21293;SDS011;10806;52.250;21.066;2022-08-11T10:55:23;12.50;;;2.63;;
21293;SDS011;10806;52.250;21.066;2022-08-11T10:58:08;24.13;;;2.58;;
21293;SDS011;10806;52.250;21.066;2022-08-11T11:00:54;18.90;;;3.10;;
21293;SDS011;10806;52.250;21.066;2022-08-11T11:03:25;15.80;;;2.60;;
21293;SDS011;10806;52.250;21.066;2022-08-11T11:05:54;13.75;;;2.55;;
21293;SDS011;10806;52.250;21.066;2022-08-11T11:08:27;12.98;;;2.28;;
21293;SDS011;10806;52.250;21.066;2022-08-11T11:11:13;13.77;;;3.15;;
21293;SDS011;10806;52.250;21.066;2022-08-11T11:13:41;12.90;;;2.63;;
21293;SDS011;10806;52.250;21.066;2022-08-11T11:16:30;8.20;;;2.33;;
21293;SDS011;10806;52.250;21.066;2022-08-11T11:19:16;12.63;;;2.95;;
21293;SDS011;10806;52.250;21.066;2022-08-11T11:21:45;13.77;;;2.45;;
21293;SDS011;10806;52.250;21.066;2022-08-11T11:24:32;11.70;;;2.40;;
21293;SDS011;10806;52.250;21.066;2022-08-11T11:27:24;21.88;;;2.92;;
21293;SDS011;10806;52.250;21.066;2022-08-11T11:30:05;12.60;;;2.45;;
21293;SDS011;10806;52.250;21.066;2022-08-11T11:32:40;11.32;;;2.30;;
21293;SDS011;10806;52.250;21.066;2022-08-11T11:35:40;16.75;;;2.88;;
21293;SDS011;10806;52.250;21.066;2022-08-11T11:38:25;13.13;;;2.70;;
21293;SDS011;10806;52.250;21.066;2022-08-11T11:40:53;9.73;;;2.67;;
21293;SDS011;10806;52.250;21.066;2022-08-11T11:43:37;22.55;;;2.95;;
21293;SDS011;10806;52.250;21.066;2022-08-11T11:46:03;18.40;;;2.90;;
21293;SDS011;10806;52.250;21.066;2022-08-11T11:48:30;13.98;;;2.50;;
21293;SDS011;10806;52.250;21.066;2022-08-11T11:50:57;7.10;;;2.40;;
21293;SDS011;10806;52.250;21.066;2022-08-11T11:53:24;9.40;;;1.95;;
21293;SDS011;10806;52.250;21.066;2022-08-11T11:55:50;6.05;;;2.03;;
21293;SDS011;10806;52.250;21.066;2022-08-11T11:58:16;7.95;;;2.10;;
21293;SDS011;10806;52.250;21.066;2022-08-11T12:01:01;13.98;;;2.40;;
21293;SDS011;10806;52.250;21.066;2022-08-11T12:03:49;15.43;;;3.00;;
21293;SDS011;10806;52.250;21.066;2022-08-11T12:06:16;23.23;;;2.33;;
21293;SDS011;10806;52.250;21.066;2022-08-11T12:08:44;13.30;;;2.30;;
21293;SDS011;10806;52.250;21.066;2022-08-11T12:11:13;22.55;;;2.97;;
21293;SDS011;10806;52.250;21.066;2022-08-11T12:14:04;20.48;;;2.97;;
21293;SDS011;10806;52.250;21.066;2022-08-11T12:16:31;13.05;;;2.60;;
21293;SDS011;10806;52.250;21.066;2022-08-11T12:18:59;16.35;;;2.50;;
21293;SDS011;10806;52.250;21.066;2022-08-11T12:21:27;11.15;;;3.00;;
21293;SDS011;10806;52.250;21.066;2022-08-11T12:23:54;14.45;;;3.13;;
21293;SDS011;10806;52.250;21.066;2022-08-11T12:26:40;15.48;;;2.60;;
21293;SDS011;10806;52.250;21.066;2022-08-11T12:29:25;4.55;;;2.10;;
21293;SDS011;10806;52.250;21.066;2022-08-11T12:31:55;13.80;;;2.95;;
21293;SDS011;10806;52.250;21.066;2022-08-11T12:34:24;8.18;;;2.58;;
21293;SDS011;10806;52.250;21.066;2022-08-11T12:36:55;5.70;;;2.30;;
21293;SDS011;10806;52.250;21.066;2022-08-11T12:39:24;7.78;;;2.17;;
21293;SDS011;10806;52.250;21.066;2022-08-11T12:42:15;7.28;;;2.15;;
21293;SDS011;10806;52.250;21.066;2022-08-11T12:45:00;5.88;;;2.17;;
21293;SDS011;10806;52.250;21.066;2022-08-11T12:47:49;5.55;;;2.08;;
21293;SDS011;10806;52.250;21.066;2022-08-11T12:50:54;3.38;;;1.80;;
21293;SDS011;10806;52.250;21.066;2022-08-11T12:53:43;3.10;;;1.90;;
21293;SDS011;10806;52.250;21.066;2022-08-11T12:56:16;3.58;;;1.70;;
21293;SDS011;10806;52.250;21.066;2022-08-11T12:59:02;4.13;;;1.60;;
21293;SDS011;10806;52.250;21.066;2022-08-11T13:01:48;3.17;;;1.83;;
21293;SDS011;10806;52.250;21.066;2022-08-11T13:04:33;4.78;;;1.73;;
21293;SDS011;10806;52.250;21.066;2022-08-11T13:07:18;2.45;;;1.50;;
21293;SDS011;10806;52.250;21.066;2022-08-11T13:09:44;5.07;;;1.70;;
21293;SDS011;10806;52.250;21.066;2022-08-11T13:12:10;3.60;;;1.23;;
21293;SDS011;10806;52.250;21.066;2022-08-11T13:14:55;1.80;;;1.35;;
21293;SDS011;10806;52.250;21.066;2022-08-11T13:17:22;4.10;;;1.50;;
21293;SDS011;10806;52.250;21.066;2022-08-11T13:19:50;3.28;;;1.63;;
21293;SDS011;10806;52.250;21.066;2022-08-11T13:22:17;10.40;;;1.85;;
21293;SDS011;10806;52.250;21.066;2022-08-11T13:24:44;6.50;;;1.25;;
21293;SDS011;10806;52.250;21.066;2022-08-11T13:27:12;20.35;;;1.90;;
21293;SDS011;10806;52.250;21.066;2022-08-11T13:29:41;2.42;;;1.40;;
21293;SDS011;10806;52.250;21.066;2022-08-11T13:32:10;4.72;;;1.75;;
21293;SDS011;10806;52.250;21.066;2022-08-11T13:34:37;11.23;;;1.67;;
21293;SDS011;10806;52.250;21.066;2022-08-11T13:37:06;4.80;;;1.38;;
21293;SDS011;10806;52.250;21.066;2022-08-11T13:39:37;5.45;;;1.80;;
21293;SDS011;10806;52.250;21.066;2022-08-11T13:42:11;4.70;;;1.42;;
21293;SDS011;10806;52.250;21.066;2022-08-11T13:44:39;3.53;;;1.20;;
21293;SDS011;10806;52.250;21.066;2022-08-11T13:47:07;3.85;;;1.40;;
21293;SDS011;10806;52.250;21.066;2022-08-11T13:49:38;4.03;;;1.67;;
21293;SDS011;10806;52.250;21.066;2022-08-11T13:52:05;2.13;;;1.17;;
21293;SDS011;10806;52.250;21.066;2022-08-11T13:54:33;2.10;;;1.13;;
21293;SDS011;10806;52.250;21.066;2022-08-11T13:57:03;1.75;;;1.35;;
21293;SDS011;10806;52.250;21.066;2022-08-11T13:59:35;4.30;;;1.60;;
21293;SDS011;10806;52.250;21.066;2022-08-11T14:02:03;6.45;;;1.38;;
21293;SDS011;10806;52.250;21.066;2022-08-11T14:07:06;9.82;;;1.70;;
21293;SDS011;10806;52.250;21.066;2022-08-11T14:09:37;7.38;;;2.10;;
21293;SDS011;10806;52.250;21.066;2022-08-11T14:12:07;7.30;;;1.73;;
21293;SDS011;10806;52.250;21.066;2022-08-11T14:15:00;4.32;;;1.60;;
21293;SDS011;10806;52.250;21.066;2022-08-11T14:17:30;5.25;;;1.70;;
21293;SDS011;10806;52.250;21.066;2022-08-11T14:19:57;7.97;;;1.95;;
21293;SDS011;10806;52.250;21.066;2022-08-11T14:22:28;3.75;;;1.70;;
21293;SDS011;10806;52.250;21.066;2022-08-11T14:24:55;2.60;;;1.40;;
21293;SDS011;10806;52.250;21.066;2022-08-11T14:27:22;10.15;;;1.73;;
21293;SDS011;10806;52.250;21.066;2022-08-11T14:29:50;5.75;;;1.70;;
21293;SDS011;10806;52.250;21.066;2022-08-11T14:32:18;12.73;;;2.05;;
21293;SDS011;10806;52.250;21.066;2022-08-11T14:34:44;8.32;;;1.80;;
21293;SDS011;10806;52.250;21.066;2022-08-11T14:37:14;12.20;;;1.40;;
21293;SDS011;10806;52.250;21.066;2022-08-11T14:39:49;9.80;;;1.70;;
21293;SDS011;10806;52.250;21.066;2022-08-11T14:42:18;9.10;;;1.80;;
21293;SDS011;10806;52.250;21.066;2022-08-11T14:45:05;13.45;;;2.40;;
21293;SDS011;10806;52.250;21.066;2022-08-11T14:47:52;16.80;;;2.22;;
21293;SDS011;10806;52.250;21.066;2022-08-11T14:50:22;17.42;;;2.10;;
21293;SDS011;10806;52.250;21.066;2022-08-11T14:52:50;9.27;;;2.30;;
21293;SDS011;10806;52.250;21.066;2022-08-11T14:55:31;9.40;;;1.77;;
21293;SDS011;10806;52.250;21.066;2022-08-11T14:58:20;10.77;;;2.00;;
21293;SDS011;10806;52.250;21.066;2022-08-11T15:00:51;7.88;;;1.73;;
21293;SDS011;10806;52.250;21.066;2022-08-11T15:03:19;5.57;;;1.88;;
21293;SDS011;10806;52.250;21.066;2022-08-11T15:05:48;13.27;;;2.00;;
21293;SDS011;10806;52.250;21.066;2022-08-11T15:08:16;18.80;;;2.13;;
21293;SDS011;10806;52.250;21.066;2022-08-11T15:10:43;9.57;;;2.10;;
21293;SDS011;10806;52.250;21.066;2022-08-11T15:13:10;11.73;;;2.17;;
21293;SDS011;10806;52.250;21.066;2022-08-11T15:15:40;9.32;;;1.90;;
21293;SDS011;10806;52.250;21.066;2022-08-11T15:18:24;7.97;;;1.88;;
21293;SDS011;10806;52.250;21.066;2022-08-11T15:20:50;8.27;;;1.80;;
21293;SDS011;10806;52.250;21.066;2022-08-11T15:23:37;10.07;;;2.00;;
21293;SDS011;10806;52.250;21.066;2022-08-11T15:26:28;13.30;;;2.25;;
21293;SDS011;10806;52.250;21.066;2022-08-11T15:29:23;13.43;;;1.95;;
21293;SDS011;10806;52.250;21.066;2022-08-11T15:32:11;13.30;;;1.90;;
21293;SDS011;10806;52.250;21.066;2022-08-11T15:34:46;13.63;;;2.08;;
21293;SDS011;10806;52.250;21.066;2022-08-11T15:37:37;8.75;;;1.70;;
21293;SDS011;10806;52.250;21.066;2022-08-11T15:40:11;5.88;;;2.00;;
21293;SDS011;10806;52.250;21.066;2022-08-11T15:43:06;5.32;;;1.83;;
21293;SDS011;10806;52.250;21.066;2022-08-11T15:46:00;7.43;;;2.03;;
21293;SDS011;10806;52.250;21.066;2022-08-11T15:48:40;4.90;;;1.60;;
21293;SDS011;10806;52.250;21.066;2022-08-11T15:51:11;7.00;;;1.80;;
21293;SDS011;10806;52.250;21.066;2022-08-11T15:53:46;11.52;;;1.85;;
21293;SDS011;10806;52.250;21.066;2022-08-11T15:56:16;5.55;;;1.70;;
21293;SDS011;10806;52.250;21.066;2022-08-11T15:58:45;7.43;;;2.00;;
21293;SDS011;10806;52.250;21.066;2022-08-11T16:01:30;8.75;;;2.25;;
21293;SDS011;10806;52.250;21.066;2022-08-11T16:04:20;11.80;;;2.15;;
21293;SDS011;10806;52.250;21.066;2022-08-11T16:06:58;6.65;;;1.88;;
21293;SDS011;10806;52.250;21.066;2022-08-11T16:09:31;11.13;;;2.03;;
21293;SDS011;10806;52.250;21.066;2022-08-11T16:12:08;7.85;;;2.10;;
21293;SDS011;10806;52.250;21.066;2022-08-11T16:14:38;18.52;;;2.33;;
21293;SDS011;10806;52.250;21.066;2022-08-11T16:17:25;9.68;;;2.15;;
21293;SDS011;10806;52.250;21.066;2022-08-11T16:19:54;11.85;;;2.03;;
21293;SDS011;10806;52.250;21.066;2022-08-11T16:22:22;12.32;;;2.58;;
21293;SDS011;10806;52.250;21.066;2022-08-11T16:24:58;19.48;;;2.55;;
21293;SDS011;10806;52.250;21.066;2022-08-11T16:27:25;16.58;;;2.50;;
21293;SDS011;10806;52.250;21.066;2022-08-11T16:29:51;20.25;;;2.53;;
21293;SDS011;10806;52.250;21.066;2022-08-11T16:32:20;11.20;;;2.53;;
21293;SDS011;10806;52.250;21.066;2022-08-11T16:34:54;20.02;;;4.22;;
21293;SDS011;10806;52.250;21.066;2022-08-11T16:37:48;27.13;;;7.97;;
21293;SDS011;10806;52.250;21.066;2022-08-11T16:40:36;23.85;;;6.75;;
21293;SDS011;10806;52.250;21.066;2022-08-11T16:43:04;24.42;;;6.97;;
21293;SDS011;10806;52.250;21.066;2022-08-11T16:45:50;30.60;;;6.55;;
21293;SDS011;10806;52.250;21.066;2022-08-11T16:48:37;24.58;;;7.32;;
21293;SDS011;10806;52.250;21.066;2022-08-11T16:51:07;32.30;;;7.03;;
21293;SDS011;10806;52.250;21.066;2022-08-11T16:53:35;23.88;;;4.80;;
21293;SDS011;10806;52.250;21.066;2022-08-11T16:56:03;21.55;;;4.68;;
21293;SDS011;10806;52.250;21.066;2022-08-11T16:58:31;14.95;;;4.00;;
21293;SDS011;10806;52.250;21.066;2022-08-11T17:01:19;12.40;;;3.15;;
21293;SDS011;10806;52.250;21.066;2022-08-11T17:03:46;9.32;;;2.85;;
21293;SDS011;10806;52.250;21.066;2022-08-11T17:06:37;10.00;;;3.00;;
21293;SDS011;10806;52.250;21.066;2022-08-11T17:09:23;14.15;;;3.08;;
21293;SDS011;10806;52.250;21.066;2022-08-11T17:12:10;14.50;;;2.92;;
21293;SDS011;10806;52.250;21.066;2022-08-11T17:14:57;8.20;;;2.20;;
21293;SDS011;10806;52.250;21.066;2022-08-11T17:17:35;27.85;;;2.95;;
21293;SDS011;10806;52.250;21.066;2022-08-11T17:20:03;15.60;;;3.30;;
21293;SDS011;10806;52.250;21.066;2022-08-11T17:22:34;13.00;;;2.47;;
21293;SDS011;10806;52.250;21.066;2022-08-11T17:25:21;9.32;;;2.63;;
21293;SDS011;10806;52.250;21.066;2022-08-11T17:27:52;12.98;;;2.65;;
21293;SDS011;10806;52.250;21.066;2022-08-11T17:30:19;10.77;;;2.65;;
21293;SDS011;10806;52.250;21.066;2022-08-11T17:32:49;15.05;;;3.13;;
21293;SDS011;10806;52.250;21.066;2022-08-11T17:35:36;11.40;;;2.92;;
21293;SDS011;10806;52.250;21.066;2022-08-11T17:38:06;14.88;;;2.90;;
21293;SDS011;10806;52.250;21.066;2022-08-11T17:40:39;10.90;;;2.90;;
21293;SDS011;10806;52.250;21.066;2022-08-11T17:43:33;7.90;;;2.53;;
21293;SDS011;10806;52.250;21.066;2022-08-11T17:46:17;10.40;;;2.20;;
21293;SDS011;10806;52.250;21.066;2022-08-11T17:49:03;10.57;;;2.50;;
21293;SDS011;10806;52.250;21.066;2022-08-11T17:51:32;9.25;;;2.40;;
21293;SDS011;10806;52.250;21.066;2022-08-11T17:54:17;6.53;;;2.55;;
21293;SDS011;10806;52.250;21.066;2022-08-11T17:57:04;10.88;;;2.83;;
21293;SDS011;10806;52.250;21.066;2022-08-11T17:59:49;10.38;;;2.65;;
21293;SDS011;10806;52.250;21.066;2022-08-11T18:02:18;20.00;;;3.67;;
21293;SDS011;10806;52.250;21.066;2022-08-11T18:05:11;19.65;;;3.47;;
21293;SDS011;10806;52.250;21.066;2022-08-11T18:07:39;16.63;;;3.50;;
21293;SDS011;10806;52.250;21.066;2022-08-11T18:10:25;11.40;;;3.10;;
21293;SDS011;10806;52.250;21.066;2022-08-11T18:13:11;15.57;;;2.83;;
21293;SDS011;10806;52.250;21.066;2022-08-11T18:15:57;9.77;;;3.13;;
21293;SDS011;10806;52.250;21.066;2022-08-11T18:18:41;14.38;;;3.17;;
21293;SDS011;10806;52.250;21.066;2022-08-11T18:21:25;12.10;;;2.80;;
21293;SDS011;10806;52.250;21.066;2022-08-11T18:24:12;12.43;;;2.85;;
21293;SDS011;10806;52.250;21.066;2022-08-11T18:26:59;15.55;;;3.17;;
21293;SDS011;10806;52.250;21.066;2022-08-11T18:29:47;12.95;;;3.05;;
21293;SDS011;10806;52.250;21.066;2022-08-11T18:32:33;12.93;;;2.83;;
21293;SDS011;10806;52.250;21.066;2022-08-11T18:35:19;15.32;;;3.08;;
21293;SDS011;10806;52.250;21.066;2022-08-11T18:38:05;13.93;;;3.08;;
21293;SDS011;10806;52.250;21.066;2022-08-11T18:40:53;12.07;;;2.88;;
21293;SDS011;10806;52.250;21.066;2022-08-11T18:43:41;14.82;;;2.83;;
21293;SDS011;10806;52.250;21.066;2022-08-11T18:46:28;17.88;;;2.78;;
21293;SDS011;10806;52.250;21.066;2022-08-11T18:49:16;15.82;;;2.80;;